Buoy 33880

sailwx.info

Track history (hours):
 
Tides and Currents Weather Stations Pressure Air Temp Water Temp Dewpoint Dewpoint Depression Visibility Wind Speed Wind Dir Waves Ship Positions

Drifting buoy 33880

Last reported at 2017-Apr-25 08:00 UTC. Time now 2017-Apr-25 08:38 UTC.
Position S 35°50' W 027°38'.

Date/timePositionNaut miles runAvg speedWind from/ knotsBaromVisibWave heightAir tempDewpointWater temp
2017-Apr-25 08:00S 35°50' W 027°38'1 0.4
2017-Apr-25 06:00S 35°51' W 027°37'1 0.4
2017-Apr-25 04:00S 35°50' W 027°37'2 0.7
2017-Apr-25 01:00S 35°52' W 027°35'1 0.8
2017-Apr-25 00:00S 35°53' W 027°36'1 0.6
2017-Apr-24 23:00S 35°53' W 027°36'0 0.0
2017-Apr-24 22:00S 35°53' W 027°36'1 0.6
2017-Apr-24 20:00S 35°54' W 027°37'0 0.0
2017-Apr-24 19:00S 35°54' W 027°37'1 0.6
2017-Apr-24 18:00S 35°55' W 027°37'1 0.8
2017-Apr-24 17:00S 35°54' W 027°38'0 0.0
2017-Apr-24 16:00S 35°54' W 027°38'2 0.4
2017-Apr-24 12:00S 35°53' W 027°36'0 0.0
2017-Apr-24 10:00S 35°53' W 027°36'1 0.6
2017-Apr-24 08:00S 35°54' W 027°35'2 0.9
2017-Apr-24 06:00S 35°55' W 027°33'2 1.5
2017-Apr-24 05:00S 35°56' W 027°32'2 1.9
2017-Apr-24 04:00S 35°58' W 027°32'0 0.0
2017-Apr-24 01:00S 35°58' W 027°32'1 0.8
2017-Apr-24 00:00S 35°59' W 027°33'1 0.4
2017-Apr-23 22:00S 35°58' W 027°34'0 0.0
2017-Apr-23 21:00S 35°58' W 027°34'1 0.6
2017-Apr-23 20:00S 35°58' W 027°34'2 0.9
2017-Apr-23 18:00S 35°56' W 027°32'5 5.0
2017-Apr-23 17:00S 35°59' W 027°26'2 0.3
2017-Apr-23 11:00S 36°00' W 027°25'1 0.8
2017-Apr-23 10:00S 36°01' W 027°26'2 2.0
2017-Apr-23 09:00S 36°02' W 027°27'5 0.5
2017-Apr-23 00:00S 36°02' W 027°33'2 0.8
2017-Apr-22 22:00S 36°01' W 027°34'1 0.6
2017-Apr-22 21:00S 36°00' W 027°34'0 0.0
2017-Apr-22 20:00S 36°00' W 027°34'1 1.2
2017-Apr-22 19:00S 35°59' W 027°34'1 0.8
2017-Apr-22 18:00S 35°58' W 027°34'0 0.0
2017-Apr-22 17:00S 35°58' W 027°34'2 0.3
2017-Apr-22 12:00S 35°58' W 027°32'1 1.1
2017-Apr-22 11:00S 35°58' W 027°31'1 0.6
2017-Apr-22 09:00S 35°59' W 027°31'0 0.0
2017-Apr-22 08:00S 35°59' W 027°31'2 1.9
2017-Apr-22 07:00S 35°59' W 027°34'1 0.3
2017-Apr-22 04:00S 35°59' W 027°35'1 0.8
2017-Apr-22 03:00S 35°59' W 027°34'1 0.2
2017-Apr-22 00:00S 35°58' W 027°34'0 0.5
2017-Apr-21 23:00S 35°58' W 027°34'1 1.0
2017-Apr-21 22:00S 35°58' W 027°32'0 0.0
2017-Apr-21 21:00S 35°58' W 027°32'1 0.5
2017-Apr-21 19:00S 35°58' W 027°31'1 1.0
2017-Apr-21 18:00S 35°58' W 027°30'1 0.8
2017-Apr-21 17:00S 35°59' W 027°31'3 0.5
2017-Apr-21 11:00S 36°01' W 027°28'3 0.4
2017-Apr-21 03:00S 36°03' W 027°25'0 0.0
2017-Apr-21 01:00S 36°03' W 027°25'1 1.0
2017-Apr-21 00:00S 36°03' W 027°24'2 1.6
2017-Apr-20 23:00S 36°04' W 027°22'1 1.3
2017-Apr-20 22:00S 36°05' W 027°22'0 0.0
2017-Apr-20 21:00S 36°05' W 027°22'1 0.6
2017-Apr-20 20:00S 36°05' W 027°22'1 1.1
2017-Apr-20 19:00S 36°06' W 027°20'1 1.2
2017-Apr-20 18:00S 36°07' W 027°20'1 1.3
2017-Apr-20 17:00S 36°08' W 027°21'0 0.0
2017-Apr-20 12:00S 36°08' W 027°21'0 0.0
2017-Apr-20 11:00S 36°08' W 027°21'0 0.0
2017-Apr-20 10:00S 36°08' W 027°21'1 0.8
2017-Apr-20 09:00S 36°09' W 027°20'2 0.5
2017-Apr-20 05:00S 36°10' W 027°18'4 0.9
2017-Apr-20 00:00S 36°14' W 027°16'1 1.3
2017-Apr-19 23:00S 36°15' W 027°16'2 1.9
2017-Apr-19 22:00S 36°17' W 027°16'3 1.5
2017-Apr-19 20:00S 36°20' W 027°17'0 0.0
2017-Apr-19 19:00S 36°20' W 027°17'2 1.1
2017-Apr-19 17:00S 36°21' W 027°19'0 0.0
2017-Apr-19 16:00S 36°21' W 027°19'3 0.6
2017-Apr-19 12:00S 36°23' W 027°18'3 1.3
2017-Apr-19 10:00S 36°26' W 027°17'0 0.0
2017-Apr-19 09:00S 36°26' W 027°17'0 0.0
2017-Apr-19 08:00S 36°26' W 027°17'0 0.0
2017-Apr-19 07:00S 36°26' W 027°17'2 2.4
2017-Apr-19 06:00S 36°28' W 027°17'6 1.2
2017-Apr-19 01:00S 36°34' W 027°17'0 0.0
2017-Apr-19 00:00S 36°34' W 027°17'2 1.5
2017-Apr-18 23:00S 36°35' W 027°19'1 1.3
2017-Apr-18 22:00S 36°37' W 027°19'2 2.3
2017-Apr-18 21:00S 36°38' W 027°21'1 0.6
2017-Apr-18 19:00S 36°40' W 027°22'1 0.6
2017-Apr-18 18:00S 36°40' W 027°22'2 1.9
2017-Apr-18 17:00S 36°40' W 027°24'0 0.0
2017-Apr-18 16:00S 36°40' W 027°24'0 0.0
2017-Apr-18 15:00S 36°40' W 027°24'2 0.4
2017-Apr-18 11:00S 36°41' W 027°26'1 1.1
2017-Apr-18 10:00S 36°41' W 027°27'0 0.5
2017-Apr-18 09:00S 36°41' W 027°26'1 1.3
2017-Apr-18 08:00S 36°43' W 027°27'1 0.3
2017-Apr-18 05:00S 36°43' W 027°28'3 0.4
2017-Apr-17 21:00S 36°41' W 027°32'0 0.0
2017-Apr-17 20:00S 36°41' W 027°32'0 0.0
2017-Apr-17 19:00S 36°41' W 027°32'1 1.3
2017-Apr-17 18:00S 36°43' W 027°31'0 0.0
2017-Apr-17 16:00S 36°43' W 027°31'2 0.4
2017-Apr-17 11:00S 36°44' W 027°33'1 0.5
2017-Apr-17 09:00S 36°44' W 027°34'0 0.2
2017-Apr-17 07:00S 36°44' W 027°35'1 0.5
2017-Apr-17 05:00S 36°44' W 027°36'0 0.5
2017-Apr-17 04:00S 36°44' W 027°37'0 0.0
2017-Apr-17 03:00S 36°44' W 027°37'0 0.0
2017-Apr-17 00:00S 36°44' W 027°37'0 0.5
2017-Apr-16 23:00S 36°44' W 027°36'1 0.6
2017-Apr-16 22:00S 36°44' W 027°36'2 1.0
2017-Apr-16 20:00S 36°46' W 027°35'1 1.2
2017-Apr-16 19:00S 36°45' W 027°35'2 2.4
2017-Apr-16 18:00S 36°47' W 027°35'0 0.0
2017-Apr-16 16:00S 36°47' W 027°35'5 0.9
2017-Apr-16 11:00S 36°50' W 027°40'0 0.0
2017-Apr-16 10:00S 36°50' W 027°40'1 0.7
2017-Apr-16 08:00S 36°50' W 027°41'0 0.2
2017-Apr-16 06:00S 36°50' W 027°42'1 0.8
2017-Apr-16 05:00S 36°50' W 027°43'0 0.0
2017-Apr-16 04:00S 36°50' W 027°43'1 0.4
2017-Apr-16 01:00S 36°51' W 027°42'1 0.6
2017-Apr-16 00:00S 36°50' W 027°42'2 0.8
2017-Apr-15 22:00S 36°52' W 027°43'1 0.6
2017-Apr-15 21:00S 36°52' W 027°43'0 0.5
2017-Apr-15 20:00S 36°52' W 027°44'0 0.5
2017-Apr-15 19:00S 36°52' W 027°44'1 0.8
2017-Apr-15 18:00S 36°52' W 027°44'1 1.1
2017-Apr-15 17:00S 36°52' W 027°45'0 0.1
2017-Apr-15 12:00S 36°52' W 027°46'0 0.0
2017-Apr-15 11:00S 36°52' W 027°46'1 0.8
2017-Apr-15 10:00S 36°52' W 027°46'1 1.1
2017-Apr-15 09:00S 36°52' W 027°45'1 0.6
2017-Apr-15 08:00S 36°53' W 027°45'  
Track history (hours):
 
Tides and Currents Weather Stations Pressure Air Temp Water Temp Dewpoint Dewpoint Depression Visibility Wind Speed Wind Dir Waves Ship Positions

Drifting buoy 33880

Last reported at 2017-Apr-25 08:00 UTC. Time now 2017-Apr-25 08:38 UTC.
Position S 35°50' W 027°38'.

Date/timePositionNaut miles runAvg speedWind from/ knotsBaromVisibWave heightAir tempDewpointWater temp
2017-Apr-25 08:00S 35°50' W 027°38'1 0.4
2017-Apr-25 06:00S 35°51' W 027°37'1 0.4
2017-Apr-25 04:00S 35°50' W 027°37'2 0.7
2017-Apr-25 01:00S 35°52' W 027°35'1 0.8
2017-Apr-25 00:00S 35°53' W 027°36'1 0.6
2017-Apr-24 23:00S 35°53' W 027°36'0 0.0
2017-Apr-24 22:00S 35°53' W 027°36'1 0.6
2017-Apr-24 20:00S 35°54' W 027°37'0 0.0
2017-Apr-24 19:00S 35°54' W 027°37'1 0.6
2017-Apr-24 18:00S 35°55' W 027°37'1 0.8
2017-Apr-24 17:00S 35°54' W 027°38'0 0.0
2017-Apr-24 16:00S 35°54' W 027°38'2 0.4
2017-Apr-24 12:00S 35°53' W 027°36'0 0.0
2017-Apr-24 10:00S 35°53' W 027°36'1 0.6
2017-Apr-24 08:00S 35°54' W 027°35'2 0.9
2017-Apr-24 06:00S 35°55' W 027°33'2 1.5
2017-Apr-24 05:00S 35°56' W 027°32'2 1.9
2017-Apr-24 04:00S 35°58' W 027°32'0 0.0
2017-Apr-24 01:00S 35°58' W 027°32'1 0.8
2017-Apr-24 00:00S 35°59' W 027°33'1 0.4
2017-Apr-23 22:00S 35°58' W 027°34'0 0.0
2017-Apr-23 21:00S 35°58' W 027°34'1 0.6
2017-Apr-23 20:00S 35°58' W 027°34'2 0.9
2017-Apr-23 18:00S 35°56' W 027°32'5 5.0
2017-Apr-23 17:00S 35°59' W 027°26'2 0.3
2017-Apr-23 11:00S 36°00' W 027°25'1 0.8
2017-Apr-23 10:00S 36°01' W 027°26'2 2.0
2017-Apr-23 09:00S 36°02' W 027°27'5 0.5
2017-Apr-23 00:00S 36°02' W 027°33'2 0.8
2017-Apr-22 22:00S 36°01' W 027°34'1 0.6
2017-Apr-22 21:00S 36°00' W 027°34'0 0.0
2017-Apr-22 20:00S 36°00' W 027°34'1 1.2
2017-Apr-22 19:00S 35°59' W 027°34'1 0.8
2017-Apr-22 18:00S 35°58' W 027°34'0 0.0
2017-Apr-22 17:00S 35°58' W 027°34'2 0.3
2017-Apr-22 12:00S 35°58' W 027°32'1 1.1
2017-Apr-22 11:00S 35°58' W 027°31'1 0.6
2017-Apr-22 09:00S 35°59' W 027°31'0 0.0
2017-Apr-22 08:00S 35°59' W 027°31'2 1.9
2017-Apr-22 07:00S 35°59' W 027°34'1 0.3
2017-Apr-22 04:00S 35°59' W 027°35'1 0.8
2017-Apr-22 03:00S 35°59' W 027°34'1 0.2
2017-Apr-22 00:00S 35°58' W 027°34'0 0.5
2017-Apr-21 23:00S 35°58' W 027°34'1 1.0
2017-Apr-21 22:00S 35°58' W 027°32'0 0.0
2017-Apr-21 21:00S 35°58' W 027°32'1 0.5
2017-Apr-21 19:00S 35°58' W 027°31'1 1.0
2017-Apr-21 18:00S 35°58' W 027°30'1 0.8
2017-Apr-21 17:00S 35°59' W 027°31'3 0.5
2017-Apr-21 11:00S 36°01' W 027°28'3 0.4
2017-Apr-21 03:00S 36°03' W 027°25'0 0.0
2017-Apr-21 01:00S 36°03' W 027°25'1 1.0
2017-Apr-21 00:00S 36°03' W 027°24'2 1.6
2017-Apr-20 23:00S 36°04' W 027°22'1 1.3
2017-Apr-20 22:00S 36°05' W 027°22'0 0.0
2017-Apr-20 21:00S 36°05' W 027°22'1 0.6
2017-Apr-20 20:00S 36°05' W 027°22'1 1.1
2017-Apr-20 19:00S 36°06' W 027°20'1 1.2
2017-Apr-20 18:00S 36°07' W 027°20'1 1.3
2017-Apr-20 17:00S 36°08' W 027°21'0 0.0
2017-Apr-20 12:00S 36°08' W 027°21'0 0.0
2017-Apr-20 11:00S 36°08' W 027°21'0 0.0
2017-Apr-20 10:00S 36°08' W 027°21'1 0.8
2017-Apr-20 09:00S 36°09' W 027°20'2 0.5
2017-Apr-20 05:00S 36°10' W 027°18'4 0.9
2017-Apr-20 00:00S 36°14' W 027°16'1 1.3
2017-Apr-19 23:00S 36°15' W 027°16'2 1.9
2017-Apr-19 22:00S 36°17' W 027°16'3 1.5
2017-Apr-19 20:00S 36°20' W 027°17'0 0.0
2017-Apr-19 19:00S 36°20' W 027°17'2 1.1
2017-Apr-19 17:00S 36°21' W 027°19'0 0.0
2017-Apr-19 16:00S 36°21' W 027°19'3 0.6
2017-Apr-19 12:00S 36°23' W 027°18'3 1.3
2017-Apr-19 10:00S 36°26' W 027°17'0 0.0
2017-Apr-19 09:00S 36°26' W 027°17'0 0.0
2017-Apr-19 08:00S 36°26' W 027°17'0 0.0
2017-Apr-19 07:00S 36°26' W 027°17'2 2.4
2017-Apr-19 06:00S 36°28' W 027°17'6 1.2
2017-Apr-19 01:00S 36°34' W 027°17'0 0.0
2017-Apr-19 00:00S 36°34' W 027°17'2 1.5
2017-Apr-18 23:00S 36°35' W 027°19'1 1.3
2017-Apr-18 22:00S 36°37' W 027°19'2 2.3
2017-Apr-18 21:00S 36°38' W 027°21'1 0.6
2017-Apr-18 19:00S 36°40' W 027°22'1 0.6
2017-Apr-18 18:00S 36°40' W 027°22'2 1.9
2017-Apr-18 17:00S 36°40' W 027°24'0 0.0
2017-Apr-18 16:00S 36°40' W 027°24'0 0.0
2017-Apr-18 15:00S 36°40' W 027°24'2 0.4
2017-Apr-18 11:00S 36°41' W 027°26'1 1.1
2017-Apr-18 10:00S 36°41' W 027°27'0 0.5
2017-Apr-18 09:00S 36°41' W 027°26'1 1.3
2017-Apr-18 08:00S 36°43' W 027°27'1 0.3
2017-Apr-18 05:00S 36°43' W 027°28'3 0.4
2017-Apr-17 21:00S 36°41' W 027°32'0 0.0
2017-Apr-17 20:00S 36°41' W 027°32'0 0.0
2017-Apr-17 19:00S 36°41' W 027°32'1 1.3
2017-Apr-17 18:00S 36°43' W 027°31'0 0.0
2017-Apr-17 16:00S 36°43' W 027°31'2 0.4
2017-Apr-17 11:00S 36°44' W 027°33'1 0.5
2017-Apr-17 09:00S 36°44' W 027°34'0 0.2
2017-Apr-17 07:00S 36°44' W 027°35'1 0.5
2017-Apr-17 05:00S 36°44' W 027°36'0 0.5
2017-Apr-17 04:00S 36°44' W 027°37'0 0.0
2017-Apr-17 03:00S 36°44' W 027°37'0 0.0
2017-Apr-17 00:00S 36°44' W 027°37'0 0.5
2017-Apr-16 23:00S 36°44' W 027°36'1 0.6
2017-Apr-16 22:00S 36°44' W 027°36'2 1.0
2017-Apr-16 20:00S 36°46' W 027°35'1 1.2
2017-Apr-16 19:00S 36°45' W 027°35'2 2.4
2017-Apr-16 18:00S 36°47' W 027°35'0 0.0
2017-Apr-16 16:00S 36°47' W 027°35'5 0.9
2017-Apr-16 11:00S 36°50' W 027°40'0 0.0
2017-Apr-16 10:00S 36°50' W 027°40'1 0.7
2017-Apr-16 08:00S 36°50' W 027°41'0 0.2
2017-Apr-16 06:00S 36°50' W 027°42'1 0.8
2017-Apr-16 05:00S 36°50' W 027°43'0 0.0
2017-Apr-16 04:00S 36°50' W 027°43'1 0.4
2017-Apr-16 01:00S 36°51' W 027°42'1 0.6
2017-Apr-16 00:00S 36°50' W 027°42'2 0.8
2017-Apr-15 22:00S 36°52' W 027°43'1 0.6
2017-Apr-15 21:00S 36°52' W 027°43'0 0.5
2017-Apr-15 20:00S 36°52' W 027°44'0 0.5
2017-Apr-15 19:00S 36°52' W 027°44'1 0.8
2017-Apr-15 18:00S 36°52' W 027°44'1 1.1
2017-Apr-15 17:00S 36°52' W 027°45'0 0.1
2017-Apr-15 12:00S 36°52' W 027°46'0 0.0
2017-Apr-15 11:00S 36°52' W 027°46'1 0.8
2017-Apr-15 10:00S 36°52' W 027°46'1 1.1
2017-Apr-15 09:00S 36°52' W 027°45'1 0.6
2017-Apr-15 08:00S 36°53' W 027°45'  

Dump ship's entire track history